createdAt,value
2023-02-27T00:14:18.156Z,-2.19
2023-02-27T00:44:18.165Z,-2.13
2023-02-27T01:14:18.190Z,-2.25
2023-02-27T01:44:18.181Z,-2.31
2023-02-27T02:14:18.195Z,-2.38
2023-02-27T02:44:18.197Z,-2.63
2023-02-27T03:14:18.235Z,-3
2023-02-27T03:44:18.196Z,-3.06
2023-02-27T04:14:18.209Z,-3.25
2023-02-27T04:44:18.242Z,-3.25
2023-02-27T05:14:18.232Z,-3.13
2023-02-27T05:44:18.235Z,-3.38
2023-02-27T06:14:18.246Z,-3.44
2023-02-27T06:44:19.564Z,-3.56
2023-02-27T07:14:18.253Z,-3.13
2023-02-27T07:44:18.251Z,-2.63
2023-02-27T08:14:18.263Z,-2.38
2023-02-27T08:44:18.238Z,-1.5
2023-02-27T09:14:18.282Z,-0.94
2023-02-27T09:44:18.255Z,0.13
2023-02-27T10:14:18.257Z,1.13
2023-02-27T10:44:18.273Z,2.75
2023-02-27T11:14:18.287Z,2.94
2023-02-27T11:44:18.284Z,3.5
2023-02-27T12:14:18.335Z,4
2023-02-27T12:44:18.296Z,3.94
2023-02-27T13:14:18.308Z,5.25
2023-02-27T13:44:18.307Z,5.31
2023-02-27T14:14:18.335Z,5.75
2023-02-27T14:44:18.306Z,7
2023-02-27T15:14:18.317Z,5.38
2023-02-27T15:44:18.324Z,4.06
2023-02-27T16:14:18.331Z,3.19
2023-02-27T16:44:18.329Z,2.44
2023-02-27T17:14:18.341Z,2.31
2023-02-27T17:44:18.378Z,1.69
2023-02-27T18:14:18.363Z,1
2023-02-27T18:44:18.384Z,0.25
2023-02-27T19:14:18.365Z,0
2023-02-27T19:44:18.377Z,0.06
2023-02-27T20:14:18.376Z,-0.13
2023-02-27T20:44:18.386Z,-0.69
2023-02-27T21:14:18.390Z,-0.88
2023-02-27T21:44:18.397Z,-1.25
2023-02-27T22:14:18.396Z,-1.38
2023-02-27T22:44:18.388Z,-1.5
2023-02-27T23:14:18.392Z,-1.63
2023-02-27T23:44:18.394Z,-1.81
